Time;durP1;ratioP1;P1;durP2;ratioP2;P2;SDS_P1;SDS_P2;PMS_P1;PMS_P2;Temp;Humidity;BMP_temperature;BMP_pressure;BME280_temperature;BME280_humidity;BME280_pressure;Samples;Min_cycle;Max_cycle;Signal;HPM_P1;HPM_P2
2022/06/28 00:00:18;;;;;;;16.08;12.52;;;;;;;15.19;98.47;96543.28;2062840;28;20132;-60
2022/06/28 00:01:20;;;;;;;19.98;12.25;;;;;;;15.11;98.45;96537.63;2063213;28;20065;-60
2022/06/28 00:02:21;;;;;;;20.75;13.18;;;;;;;14.99;98.54;96541.81;2056878;28;20069;-59
2022/06/28 00:03:22;;;;;;;13.95;10.18;;;;;;;15.25;98.06;96536.84;2049343;28;20051;-60
2022/06/28 00:04:23;;;;;;;14.02;12.23;;;;;;;15.07;98.73;96543.97;2057025;28;20050;-62
2022/06/28 00:05:24;;;;;;;14.13;11.60;;;;;;;15.06;99.08;96549.28;2065308;28;20415;-60
2022/06/28 00:06:25;;;;;;;17.98;11.20;;;;;;;15.13;98.53;96554.09;2049782;28;20055;-60
2022/06/28 00:07:27;;;;;;;15.48;10.88;;;;;;;15.26;98.61;96559.47;2047836;28;20054;-60
2022/06/28 00:08:28;;;;;;;16.27;12.02;;;;;;;15.12;98.43;96560.25;2057034;28;20046;-60
2022/06/28 00:09:29;;;;;;;14.82;11.05;;;;;;;15.18;98.50;96561.66;2065200;28;20042;-61
2022/06/28 00:10:31;;;;;;;13.10;10.93;;;;;;;15.31;98.53;96559.19;2056936;28;20051;-60
2022/06/28 00:11:32;;;;;;;14.90;11.43;;;;;;;15.50;97.32;96561.59;2052609;28;20429;-59
2022/06/28 00:12:33;;;;;;;14.38;11.55;;;;;;;15.35;98.07;96564.19;2048931;28;20175;-60
2022/06/28 00:13:34;;;;;;;18.05;13.15;;;;;;;15.54;97.44;96555.28;2049383;28;20055;-60
2022/06/28 00:17:07;;;;;;;14.32;11.85;;;;;;;15.75;96.63;96553.22;2055763;28;20425;-60
2022/06/28 00:18:08;;;;;;;14.68;10.68;;;;;;;16.00;96.03;96550.81;2049523;28;20039;-61
2022/06/28 00:19:09;;;;;;;18.27;12.35;;;;;;;16.08;95.45;96558.19;2041593;29;20051;-60
2022/06/28 00:20:10;;;;;;;15.95;10.65;;;;;;;16.09;95.38;96552.00;2049547;28;20051;-61
2022/06/28 00:21:12;;;;;;;14.98;10.70;;;;;;;16.00;95.51;96556.03;2041860;28;20059;-59
2022/06/28 00:22:13;;;;;;;14.00;11.35;;;;;;;16.00;95.29;96558.66;2041212;28;20055;-60
2022/06/28 00:23:14;;;;;;;15.88;12.10;;;;;;;15.93;95.36;96559.13;2051096;28;20041;-60
2022/06/28 00:24:15;;;;;;;17.02;12.73;;;;;;;15.91;95.53;96558.38;2048612;28;20051;-60
2022/06/28 00:25:16;;;;;;;12.93;10.63;;;;;;;15.95;95.31;96555.47;2048768;28;20047;-59
2022/06/28 00:26:18;;;;;;;15.45;11.63;;;;;;;15.85;95.16;96556.94;2064529;28;20405;-59
2022/06/28 00:27:19;;;;;;;15.50;11.95;;;;;;;15.95;96.10;96563.31;2048816;28;20074;-60
2022/06/28 00:28:20;;;;;;;20.38;12.93;;;;;;;15.93;95.46;96557.38;2048609;28;20050;-60
2022/06/28 00:29:21;;;;;;;15.70;12.60;;;;;;;15.84;95.21;96550.88;2057576;28;20077;-60
2022/06/28 00:30:23;;;;;;;15.13;12.40;;;;;;;15.83;95.03;96550.97;2049007;29;20058;-59
2022/06/28 00:31:25;;;;;;;14.73;12.38;;;;;;;15.86;95.08;96550.78;2048634;28;20058;-59
2022/06/28 00:32:26;;;;;;;17.05;12.35;;;;;;;15.83;95.60;96553.59;2057219;28;20058;-60
2022/06/28 00:33:27;;;;;;;15.75;12.90;;;;;;;15.80;95.14;96552.00;2045892;28;20484;-60
2022/06/28 00:34:28;;;;;;;15.45;12.40;;;;;;;15.75;95.61;96551.44;2049169;28;20043;-60
2022/06/28 00:35:29;;;;;;;17.85;13.32;;;;;;;15.82;96.03;96554.50;2057119;28;20046;-60
2022/06/28 00:36:32;;;;;;;17.05;13.38;;;;;;;15.81;95.55;96551.06;2049102;28;20047;-61
2022/06/28 00:37:33;;;;;;;16.05;13.05;;;;;;;15.99;95.30;96562.22;2065569;28;20125;-60
2022/06/28 00:38:35;;;;;;;18.42;13.40;;;;;;;15.99;95.28;96553.53;2057019;28;20058;-60
2022/06/28 00:39:36;;;;;;;17.23;12.57;;;;;;;15.90;95.04;96561.91;2056784;28;20054;-59
2022/06/28 00:40:49;;;;;;;17.75;13.73;;;;;;;16.12;95.66;96556.22;2045598;28;20039;-59
2022/06/28 00:41:51;;;;;;;19.83;14.10;;;;;;;15.96;94.98;96564.16;2059566;28;20054;-59
2022/06/28 00:42:52;;;;;;;18.63;14.13;;;;;;;15.85;94.55;96563.06;2073243;28;20041;-59
2022/06/28 00:43:53;;;;;;;16.88;13.93;;;;;;;15.99;95.14;96558.78;2072251;28;20519;-59
2022/06/28 00:44:57;;;;;;;19.85;15.15;;;;;;;15.97;94.78;96566.72;2064957;28;20089;-60
2022/06/28 00:45:59;;;;;;;19.10;14.60;;;;;;;15.66;95.12;96563.25;2073023;28;20049;-59
2022/06/28 00:47:01;;;;;;;17.50;14.25;;;;;;;15.80;95.47;96559.03;2069299;28;20061;-58
2022/06/28 00:48:03;;;;;;;16.35;13.35;;;;;;;15.98;95.00;96565.75;2056264;28;20617;-58
2022/06/28 00:49:04;;;;;;;16.88;13.82;;;;;;;15.98;95.64;96563.13;2048873;28;20051;-60
2022/06/28 00:50:06;;;;;;;20.58;14.60;;;;;;;16.01;95.79;96565.59;2045257;28;20051;-60
2022/06/28 00:51:08;;;;;;;19.88;14.65;;;;;;;16.15;95.26;96569.16;2056973;28;20058;-60
2022/06/28 00:52:10;;;;;;;18.90;14.13;;;;;;;16.16;94.47;96574.31;2065067;28;20053;-60
2022/06/28 00:53:14;;;;;;;17.75;13.43;;;;;;;16.30;94.77;96569.09;2049858;28;20058;-59
2022/06/28 00:54:16;;;;;;;19.08;14.95;;;;;;;16.25;94.78;96572.91;2049724;28;20055;-60
2022/06/28 00:55:17;;;;;;;24.25;16.25;;;;;;;16.15;95.01;96569.16;2070563;28;20049;-60
2022/06/28 00:56:18;;;;;;;22.02;16.63;;;;;;;15.96;94.85;96569.41;2063817;28;20455;-59
2022/06/28 00:57:19;;;;;;;17.40;15.18;;;;;;;16.10;95.31;96575.50;2064474;28;20108;-59
2022/06/28 00:58:20;;;;;;;19.63;15.13;;;;;;;16.24;95.23;96579.09;2072442;28;20125;-60
2022/06/28 00:59:21;;;;;;;17.17;14.32;;;;;;;16.19;95.72;96578.50;2064826;28;20053;-59
2022/06/28 01:00:22;;;;;;;20.83;16.20;;;;;;;16.06;95.50;96576.66;2056783;28;20053;-60
2022/06/28 01:01:25;;;;;;;17.27;14.10;;;;;;;15.94;94.78;96580.00;2048836;28;20055;-60
2022/06/28 01:02:26;;;;;;;18.58;14.50;;;;;;;15.99;95.12;96585.81;2049697;28;20051;-60
2022/06/28 01:03:28;;;;;;;21.02;15.85;;;;;;;16.03;94.93;96579.44;2064526;28;20128;-61
2022/06/28 01:04:29;;;;;;;18.33;14.95;;;;;;;16.06;95.39;96581.91;2064010;28;20054;-60
2022/06/28 01:05:31;;;;;;;18.92;14.52;;;;;;;16.01;94.87;96580.44;2057028;28;20042;-61
2022/06/28 01:06:32;;;;;;;19.75;14.07;;;;;;;16.00;95.07;96579.63;2040228;29;20051;-60
2022/06/28 01:07:34;;;;;;;18.42;15.27;;;;;;;15.95;95.54;96583.44;2041241;28;20056;-59
2022/06/28 01:08:35;;;;;;;15.98;13.77;;;;;;;16.19;95.27;96579.34;2056532;28;20073;-59
2022/06/28 01:09:37;;;;;;;19.15;14.55;;;;;;;16.25;94.93;96578.13;2056468;28;20050;-61
2022/06/28 01:10:38;;;;;;;14.63;12.90;;;;;;;16.15;94.87;96577.03;2049042;28;20047;-60
2022/06/28 01:11:40;;;;;;;19.00;14.75;;;;;;;16.09;94.80;96580.84;2054237;28;20042;-59
2022/06/28 01:12:41;;;;;;;17.17;13.18;;;;;;;15.88;95.05;96577.75;2048116;28;20111;-59
2022/06/28 01:13:42;;;;;;;18.25;14.90;;;;;;;15.86;94.92;96587.47;2056655;28;20464;-61
2022/06/28 01:14:44;;;;;;;16.65;14.07;;;;;;;16.01;95.38;96583.94;2064131;28;20535;-59
2022/06/28 01:15:55;;;;;;;17.15;14.32;;;;;;;16.15;95.49;96587.50;2049034;28;20061;-60
2022/06/28 01:16:57;;;;;;;15.30;13.15;;;;;;;16.18;94.75;96589.94;2036652;29;20059;-59
2022/06/28 01:18:10;;;;;;;18.38;14.82;;;;;;;16.07;94.73;96583.56;2045845;28;20051;-60
2022/06/28 01:19:14;;;;;;;16.38;13.55;;;;;;;16.26;94.76;96588.53;2059351;28;20049;-59
2022/06/28 01:20:15;;;;;;;18.08;13.60;;;;;;;16.27;95.10;96586.75;2064071;28;20058;-60
2022/06/28 01:21:35;;;;;;;16.05;13.27;;;;;;;16.37;95.02;96590.50;2059027;28;20512;-59
2022/06/28 01:22:40;;;;;;;20.80;14.02;;;;;;;16.16;94.38;96584.78;2049042;28;20065;-58
2022/06/28 01:23:42;;;;;;;19.45;14.68;;;;;;;16.21;94.39;96585.34;2050548;28;20047;-59
2022/06/28 01:25:04;;;;;;;17.58;13.88;;;;;;;16.08;94.88;96585.25;2067485;28;20050;-59
2022/06/28 01:26:07;;;;;;;17.75;12.75;;;;;;;16.36;94.65;96583.59;2056812;28;20043;-59
2022/06/28 01:27:15;;;;;;;19.88;15.02;;;;;;;16.32;95.13;96592.56;2042790;28;20047;-59
2022/06/28 01:28:17;;;;;;;21.73;15.35;;;;;;;16.15;94.56;96579.66;2040738;28;20044;-60
2022/06/28 01:29:18;;;;;;;17.20;14.63;;;;;;;16.25;95.20;96580.75;2035800;29;20047;-60
2022/06/28 01:30:28;;;;;;;20.70;14.85;;;;;;;16.09;94.55;96584.31;2048881;29;20050;-60
2022/06/28 01:31:29;;;;;;;20.88;15.77;;;;;;;16.20;95.20;96586.31;2035633;29;20044;-60
2022/06/28 01:32:33;;;;;;;18.23;14.57;;;;;;;16.30;94.94;96591.81;2049449;28;20051;-60
2022/06/28 01:33:40;;;;;;;20.63;15.18;;;;;;;16.07;94.37;96587.97;2058650;28;20058;-60
2022/06/28 01:34:45;;;;;;;18.83;14.95;;;;;;;16.19;94.63;96587.22;2055956;28;20361;-60
2022/06/28 01:35:50;;;;;;;20.83;16.63;;;;;;;16.25;94.72;96591.25;2054305;28;20460;-60
2022/06/28 01:36:54;;;;;;;22.50;16.65;;;;;;;16.22;95.28;96586.19;2056067;28;20054;-61
2022/06/28 01:37:57;;;;;;;20.33;14.50;;;;;;;16.33;95.61;96591.63;2056703;28;20050;-60
2022/06/28 01:38:59;;;;;;;22.00;15.77;;;;;;;16.44;95.59;96591.81;2048619;28;20055;-60
2022/06/28 01:40:03;;;;;;;21.58;16.75;;;;;;;16.25;95.36;96586.88;2041261;29;20048;-60
2022/06/28 01:41:06;;;;;;;27.27;17.75;;;;;;;16.26;95.64;96587.69;2041954;28;20055;-60
2022/06/28 01:42:08;;;;;;;19.60;15.10;;;;;;;16.34;95.84;96595.94;2041545;28;20055;-60
2022/06/28 01:43:14;;;;;;;16.50;14.27;;;;;;;16.36;94.71;96599.31;2043850;28;20043;-60
2022/06/28 01:44:18;;;;;;;15.73;13.30;;;;;;;16.27;95.23;96592.84;2058263;28;20054;-62
2022/06/28 01:47:04;;;;;;;19.38;15.18;;;;;;;16.24;94.68;96594.81;2049181;28;20059;-61
2022/06/28 01:48:25;;;;;;;19.95;14.88;;;;;;;16.08;96.04;96598.34;2056308;28;20058;-62
2022/06/28 01:49:34;;;;;;;21.90;15.63;;;;;;;15.96;95.64;96593.84;2040932;29;20453;-63
2022/06/28 01:50:37;;;;;;;23.25;17.33;;;;;;;16.01;96.82;96598.78;2050482;28;20554;-64
2022/06/28 01:51:38;;;;;;;20.95;15.52;;;;;;;16.15;94.79;96604.06;2048993;28;20054;-63
2022/06/28 01:52:41;;;;;;;19.38;16.10;;;;;;;16.09;95.35;96609.66;2040877;29;20054;-62
2022/06/28 01:54:00;;;;;;;27.85;19.58;;;;;;;16.13;94.92;96613.78;2043866;29;20043;-62
2022/06/28 01:55:07;;;;;;;23.70;17.42;;;;;;;16.19;95.51;96613.41;2051638;28;20440;-63
2022/06/28 01:56:12;;;;;;;26.33;18.23;;;;;;;16.15;94.72;96616.34;2044211;28;20068;-64
2022/06/28 01:57:33;;;;;;;25.88;19.05;;;;;;;16.70;93.96;96613.81;2041652;28;20055;-63
2022/06/28 01:58:35;;;;;;;25.70;18.45;;;;;;;16.95;92.17;96621.03;2040648;29;20050;-62
2022/06/28 01:59:37;;;;;;;20.17;16.17;;;;;;;16.84;92.95;96620.00;2047615;29;20051;-62
2022/06/28 02:00:45;;;;;;;20.55;16.17;;;;;;;17.05;93.35;96613.41;2048539;29;20051;-63
2022/06/28 02:01:47;;;;;;;19.58;15.45;;;;;;;17.24;93.37;96620.97;2039960;29;20048;-63
2022/06/28 02:02:51;;;;;;;21.95;17.00;;;;;;;17.57;90.37;96615.31;2033912;29;20059;-63
2022/06/28 02:04:21;;;;;;;16.08;13.40;;;;;;;17.79;91.73;96614.78;2040799;29;20059;-62
2022/06/28 02:05:26;;;;;;;20.55;15.43;;;;;;;17.83;92.18;96618.06;2048890;28;20043;-63
2022/06/28 02:06:29;;;;;;;20.15;15.77;;;;;;;17.61;90.18;96618.56;2040371;29;20058;-62
2022/06/28 02:07:35;;;;;;;17.45;14.02;;;;;;;17.92;89.99;96611.34;2033963;28;20044;-62
2022/06/28 02:08:37;;;;;;;17.60;14.00;;;;;;;17.33;91.81;96617.75;2040377;29;20510;-62
2022/06/28 02:09:42;;;;;;;21.55;16.77;;;;;;;17.52;90.43;96611.31;2039526;29;20418;-62
2022/06/28 02:10:44;;;;;;;18.70;13.52;;;;;;;17.45;91.12;96610.84;2033871;29;20048;-63
2022/06/28 02:11:45;;;;;;;19.95;15.13;;;;;;;17.40;91.43;96610.31;2048581;29;20054;-62
2022/06/28 02:12:48;;;;;;;15.30;13.23;;;;;;;17.64;90.68;96606.09;2047902;29;20042;-62
2022/06/28 02:13:50;;;;;;;16.92;13.85;;;;;;;17.54;91.46;96604.19;2040441;29;20047;-63
2022/06/28 02:14:51;;;;;;;14.90;12.15;;;;;;;17.57;91.92;96607.44;2025029;29;20056;-62
2022/06/28 02:15:52;;;;;;;21.00;16.52;;;;;;;17.63;92.22;96604.41;2024343;29;20537;-62
2022/06/28 02:16:54;;;;;;;17.40;14.50;;;;;;;17.69;91.75;96603.16;2032081;29;20506;-63
2022/06/28 02:17:59;;;;;;;19.50;14.65;;;;;;;17.64;92.05;96610.50;2039929;29;20047;-64
2022/06/28 02:19:01;;;;;;;15.68;12.70;;;;;;;17.46;92.28;96603.84;2034214;29;20052;-62
2022/06/28 02:20:03;;;;;;;21.30;15.65;;;;;;;17.63;92.73;96603.56;2040819;29;20055;-63
2022/06/28 02:21:05;;;;;;;15.52;13.57;;;;;;;17.60;90.35;96612.47;2040748;29;20556;-63
2022/06/28 02:22:06;;;;;;;22.35;15.65;;;;;;;17.64;91.50;96607.88;2041180;28;20055;-62
2022/06/28 02:23:07;;;;;;;19.15;15.90;;;;;;;17.58;90.23;96613.53;2048775;28;20058;-63
2022/06/28 02:24:10;;;;;;;16.55;13.00;;;;;;;17.63;90.06;96608.81;2039939;29;20062;-63
2022/06/28 02:25:12;;;;;;;20.98;15.30;;;;;;;17.58;91.13;96613.53;2033295;29;20513;-63
2022/06/28 02:26:13;;;;;;;19.08;14.85;;;;;;;17.56;90.29;96613.66;2048740;28;20091;-62
2022/06/28 02:27:14;;;;;;;15.55;11.77;;;;;;;17.61;90.08;96613.31;2048728;29;20069;-63
2022/06/28 02:28:17;;;;;;;18.95;12.13;;;;;;;17.66;90.07;96615.66;2047967;29;20051;-63
2022/06/28 02:29:19;;;;;;;17.83;12.23;;;;;;;17.81;88.02;96617.31;2033224;29;20129;-62
2022/06/28 02:30:21;;;;;;;15.43;12.52;;;;;;;18.06;89.37;96616.50;2032675;29;20056;-62
2022/06/28 02:31:22;;;;;;;25.15;14.02;;;;;;;17.69;88.34;96626.78;2045909;29;20054;-63
2022/06/28 02:32:24;;;;;;;15.73;11.10;;;;;;;18.11;87.78;96624.91;2040150;29;20058;-63
2022/06/28 02:33:25;;;;;;;15.20;12.25;;;;;;;18.05;87.84;96628.81;2041028;28;20066;-62
2022/06/28 02:41:10;;;;;;;12.85;10.60;;;;;;;16.96;92.47;96627.94;2035090;29;20062;-63
2022/06/28 02:42:12;;;;;;;13.50;10.45;;;;;;;16.89;91.63;96629.28;2048602;28;20051;-63
2022/06/28 02:43:13;;;;;;;14.55;10.82;;;;;;;17.08;91.90;96628.13;2048839;28;20057;-63
2022/06/28 02:44:18;;;;;;;15.15;10.45;;;;;;;16.92;92.08;96629.09;2047374;29;20058;-63
2022/06/28 02:45:20;;;;;;;15.95;10.32;;;;;;;17.09;91.42;96637.69;2040537;29;20055;-63
2022/06/28 02:46:21;;;;;;;14.65;11.23;;;;;;;17.44;90.08;96629.34;2040553;29;20063;-63
2022/06/28 02:47:22;;;;;;;16.00;12.32;;;;;;;17.56;90.20;96636.41;2047847;29;20552;-64
2022/06/28 02:48:23;;;;;;;15.27;11.88;;;;;;;17.95;89.06;96632.16;2043001;28;20051;-63
2022/06/28 02:49:24;;;;;;;18.35;12.48;;;;;;;18.36;87.75;96628.50;2040304;29;20082;-64
2022/06/28 02:50:26;;;;;;;16.65;12.57;;;;;;;18.44;88.38;96631.44;2032359;29;20047;-64
2022/06/28 02:51:27;;;;;;;14.20;11.18;;;;;;;18.79;86.54;96625.56;2040253;29;20070;-62
2022/06/28 02:52:28;;;;;;;13.27;10.68;;;;;;;18.67;86.98;96632.50;2040029;29;20550;-63
2022/06/28 02:53:29;;;;;;;15.77;11.65;;;;;;;18.00;87.90;96624.81;2047844;29;20055;-63
2022/06/28 02:54:31;;;;;;;14.32;10.48;;;;;;;17.84;87.44;96628.44;2048372;29;20055;-63
2022/06/28 02:55:33;;;;;;;13.73;11.75;;;;;;;18.01;88.96;96631.72;2039944;29;20043;-63
2022/06/28 02:56:34;;;;;;;15.32;11.45;;;;;;;18.11;87.53;96629.34;2048010;28;20114;-61
2022/06/28 02:57:36;;;;;;;17.30;12.38;;;;;;;18.18;87.59;96623.56;2047760;29;20051;-63
2022/06/28 02:58:37;;;;;;;13.93;10.63;;;;;;;18.14;87.03;96622.09;2048333;28;20437;-62
2022/06/28 02:59:39;;;;;;;12.63;10.85;;;;;;;17.81;87.05;96631.28;2040378;29;20506;-62
2022/06/28 03:00:41;;;;;;;20.35;12.20;;;;;;;19.21;82.20;96629.59;2033061;29;20048;-62
2022/06/28 03:01:42;;;;;;;13.48;11.23;;;;;;;19.39;83.71;96635.31;2048291;29;20054;-62
2022/06/28 03:02:44;;;;;;;15.07;11.20;;;;;;;20.07;83.37;96625.09;2048046;29;20548;-63
2022/06/28 03:03:47;;;;;;;17.77;11.50;;;;;;;19.99;82.44;96623.03;2047265;29;20043;-62
2022/06/28 03:04:48;;;;;;;15.07;11.30;;;;;;;17.60;87.02;96630.88;2047910;29;20055;-62
2022/06/28 03:05:49;;;;;;;12.10;10.15;;;;;;;16.11;92.61;96620.88;2047319;29;20062;-63
2022/06/28 03:06:51;;;;;;;14.73;11.93;;;;;;;16.47;91.93;96627.50;2039994;29;20056;-61
2022/06/28 03:07:52;;;;;;;16.45;11.43;;;;;;;17.00;90.20;96628.63;2025281;29;20063;-63
2022/06/28 03:08:55;;;;;;;15.20;11.63;;;;;;;17.05;90.56;96630.94;2040332;29;20094;-62
2022/06/28 03:09:56;;;;;;;18.45;11.55;;;;;;;16.19;93.06;96636.16;2031869;29;20056;-62
2022/06/28 03:10:58;;;;;;;14.93;11.23;;;;;;;15.61;93.53;96638.59;2035027;29;20068;-63
2022/06/28 03:11:59;;;;;;;14.63;11.50;;;;;;;15.35;95.30;96639.22;2040084;29;20054;-62
2022/06/28 03:13:00;;;;;;;13.57;10.95;;;;;;;14.92;97.05;96641.59;2032108;29;20466;-63
2022/06/28 03:14:03;;;;;;;12.45;10.00;;;;;;;14.84;96.98;96643.78;2040649;28;20048;-62
2022/06/28 03:15:05;;;;;;;12.25;10.88;;;;;;;14.84;97.89;96647.25;2040443;28;20477;-60
2022/06/28 03:16:06;;;;;;;15.45;11.63;;;;;;;14.67;98.23;96642.06;2032853;29;20048;-62
2022/06/28 03:17:07;;;;;;;13.43;11.30;;;;;;;14.60;98.22;96641.56;2040646;29;20051;-61
2022/06/28 03:18:09;;;;;;;14.07;10.88;;;;;;;14.54;98.58;96634.00;2040131;29;20058;-62
2022/06/28 03:19:10;;;;;;;14.25;11.07;;;;;;;14.53;98.36;96637.56;2040323;29;20054;-62
2022/06/28 03:20:11;;;;;;;14.73;11.35;;;;;;;14.59;98.28;96642.47;2038920;29;20047;-61
2022/06/28 03:21:14;;;;;;;16.48;11.18;;;;;;;14.53;99.10;96638.41;2048604;28;20497;-62
2022/06/28 03:22:15;;;;;;;15.68;11.82;;;;;;;14.49;98.88;96638.63;2048273;28;20047;-62
2022/06/28 03:23:17;;;;;;;15.82;10.13;;;;;;;14.47;99.43;96638.69;2049439;28;20043;-62
2022/06/28 03:24:20;;;;;;;15.93;10.60;;;;;;;14.43;99.44;96642.38;2048733;29;20378;-63
2022/06/28 03:25:22;;;;;;;15.35;11.63;;;;;;;14.43;99.68;96642.38;2039970;29;20051;-62
2022/06/28 03:26:24;;;;;;;17.15;12.05;;;;;;;14.43;99.84;96644.16;2040773;29;20056;-62
2022/06/28 03:27:26;;;;;;;16.20;10.82;;;;;;;14.44;99.43;96644.09;2040642;28;20047;-62
2022/06/28 03:28:27;;;;;;;14.95;12.00;;;;;;;14.45;100.00;96645.75;2032616;29;20051;-62
2022/06/28 03:29:32;;;;;;;13.48;11.18;;;;;;;14.46;99.98;96649.22;2037864;29;20545;-62
2022/06/28 03:30:35;;;;;;;16.90;11.80;;;;;;;14.42;100.00;96652.94;2047769;29;20512;-62
2022/06/28 03:31:36;;;;;;;14.82;10.32;;;;;;;14.48;99.44;96652.59;2040701;29;20434;-61
2022/06/28 03:32:39;;;;;;;16.35;11.55;;;;;;;14.42;100.00;96651.16;2033325;29;20055;-62
2022/06/28 03:33:41;;;;;;;15.75;12.45;;;;;;;14.41;100.00;96648.66;2039781;29;20047;-62
2022/06/28 03:34:43;;;;;;;15.32;11.05;;;;;;;14.44;99.98;96638.03;2025557;29;20487;-63
2022/06/28 03:35:46;;;;;;;14.40;11.35;;;;;;;14.42;100.00;96651.16;2040936;28;20548;-61
2022/06/28 03:36:47;;;;;;;15.25;12.23;;;;;;;14.42;100.00;96642.47;2047731;29;20059;-62
2022/06/28 03:38:05;;;;;;;16.25;12.15;;;;;;;14.42;99.86;96645.94;2049822;28;20077;-62
2022/06/28 03:39:27;;;;;;;12.60;11.13;;;;;;;14.43;99.99;96644.16;2047431;29;20584;-62
2022/06/28 03:40:29;;;;;;;16.65;12.65;;;;;;;14.46;99.94;96638.78;2049572;29;20043;-63
2022/06/28 03:41:30;;;;;;;18.50;12.40;;;;;;;14.40;100.00;96646.94;2049551;29;20099;-62
2022/06/28 03:42:40;;;;;;;16.02;11.75;;;;;;;14.48;100.00;96639.53;2034141;29;20166;-62
2022/06/28 03:43:41;;;;;;;17.02;12.02;;;;;;;14.46;100.00;96638.78;2034626;29;20056;-62
2022/06/28 03:44:43;;;;;;;18.58;12.40;;;;;;;14.41;100.00;96639.03;2040972;29;20062;-62
2022/06/28 03:45:44;;;;;;;15.77;12.65;;;;;;;14.44;100.00;96640.63;2048605;28;20054;-63
2022/06/28 03:47:05;;;;;;;16.67;12.93;;;;;;;14.48;100.00;96650.00;2046972;28;20047;-62
2022/06/28 03:48:13;;;;;;;19.25;13.68;;;;;;;14.45;100.00;96645.75;2042309;28;20055;-62
2022/06/28 03:49:34;;;;;;;19.58;13.88;;;;;;;14.48;100.00;96652.59;2042437;28;20056;-62
2022/06/28 03:50:35;;;;;;;16.05;12.68;;;;;;;14.54;100.00;96655.78;2041964;29;20059;-61
2022/06/28 03:51:36;;;;;;;21.77;13.40;;;;;;;14.55;100.00;96651.41;2049756;28;20552;-61
2022/06/28 03:52:54;;;;;;;18.13;13.45;;;;;;;14.51;100.00;96655.06;2046866;28;20047;-62
2022/06/28 03:54:14;;;;;;;17.38;12.60;;;;;;;14.50;100.00;96651.59;2047022;29;20062;-63
2022/06/28 03:55:22;;;;;;;16.95;12.05;;;;;;;14.51;100.00;96650.69;2046786;28;20388;-62
2022/06/28 03:56:26;;;;;;;21.15;12.55;;;;;;;14.58;100.00;96647.78;2042457;28;20067;-62
2022/06/28 03:57:28;;;;;;;26.13;14.40;;;;;;;14.62;100.00;96652.78;2049680;29;20052;-62
2022/06/28 03:58:30;;;;;;;21.10;13.63;;;;;;;14.62;99.78;96646.69;2049524;29;20050;-62
2022/06/28 03:59:31;;;;;;;18.77;13.52;;;;;;;14.60;99.61;96649.38;2049588;28;20051;-62
2022/06/28 04:00:32;;;;;;;21.60;14.75;;;;;;;14.59;99.95;96650.28;2049400;29;20050;-62
2022/06/28 04:01:34;;;;;;;21.08;14.23;;;;;;;14.56;99.97;96643.47;2049334;28;20445;-62
2022/06/28 04:02:37;;;;;;;17.08;13.27;;;;;;;14.56;99.46;96640.84;2049756;29;20043;-59
2022/06/28 04:03:38;;;;;;;20.10;14.95;;;;;;;14.59;100.00;96639.00;2049313;29;20047;-61
2022/06/28 04:04:39;;;;;;;19.25;13.88;;;;;;;14.58;100.00;96645.16;2043200;29;20048;-62
2022/06/28 04:05:41;;;;;;;20.65;14.13;;;;;;;14.57;100.00;96639.09;2049520;29;20054;-62
2022/06/28 04:06:43;;;;;;;19.63;13.52;;;;;;;14.54;99.54;96642.72;2041235;29;20043;-62
2022/06/28 04:07:44;;;;;;;17.60;13.50;;;;;;;14.56;99.63;96648.69;2028834;29;20066;-62
2022/06/28 04:08:46;;;;;;;16.50;12.77;;;;;;;14.55;99.36;96652.25;2041479;29;20429;-62
2022/06/28 04:09:47;;;;;;;18.38;13.13;;;;;;;14.55;99.16;96652.25;2049367;28;20050;-61
2022/06/28 04:10:49;;;;;;;20.42;14.27;;;;;;;14.63;99.24;96656.22;2041127;29;20055;-62
2022/06/28 04:11:54;;;;;;;21.15;15.82;;;;;;;14.63;100.00;96656.22;2041341;29;20047;-62
2022/06/28 04:12:56;;;;;;;20.65;12.88;;;;;;;14.64;99.58;96653.50;2050416;28;20111;-63
2022/06/28 04:13:58;;;;;;;20.33;14.23;;;;;;;14.68;99.89;96656.84;2049527;29;20062;-62
2022/06/28 04:15:00;;;;;;;22.88;15.07;;;;;;;14.70;99.77;96655.81;2040796;29;20067;-61
2022/06/28 04:16:01;;;;;;;19.13;15.32;;;;;;;14.72;99.59;96653.13;2038391;29;20059;-62
2022/06/28 04:17:03;;;;;;;20.90;14.43;;;;;;;14.71;99.95;96651.44;2041053;29;20058;-62
2022/06/28 04:18:18;;;;;;;19.92;13.95;;;;;;;14.81;99.75;96646.53;2033143;29;20052;-62
2022/06/28 04:19:39;;;;;;;19.70;13.40;;;;;;;14.80;99.18;96645.69;2034300;29;20056;-62
2022/06/28 04:20:44;;;;;;;17.58;12.85;;;;;;;14.77;98.09;96641.47;2036492;29;20454;-63
2022/06/28 04:21:46;;;;;;;18.10;13.75;;;;;;;14.85;98.55;96645.47;2049383;29;20560;-62
2022/06/28 04:22:51;;;;;;;18.55;14.40;;;;;;;14.81;98.44;96638.69;2040673;29;20047;-61
2022/06/28 04:23:53;;;;;;;17.23;13.95;;;;;;;14.80;99.00;96644.88;2030151;29;20051;-62
2022/06/28 04:24:54;;;;;;;18.58;14.60;;;;;;;14.76;98.92;96641.56;2040812;29;20044;-63
2022/06/28 04:26:05;;;;;;;19.10;15.00;;;;;;;14.76;98.55;96641.56;2041508;29;20043;-62
2022/06/28 04:27:11;;;;;;;19.30;15.20;;;;;;;14.75;98.44;96645.97;2042917;28;20477;-61
2022/06/28 04:28:13;;;;;;;17.85;13.25;;;;;;;14.81;99.08;96643.94;2041394;29;20056;-62
2022/06/28 04:29:23;;;;;;;22.45;14.55;;;;;;;14.75;98.26;96639.88;2027026;29;20455;-63
2022/06/28 04:30:25;;;;;;;18.58;14.10;;;;;;;14.77;98.16;96638.88;2036355;29;20047;-62
2022/06/28 04:31:32;;;;;;;20.23;14.65;;;;;;;14.83;98.03;96640.31;2048975;28;20055;-63
2022/06/28 04:32:33;;;;;;;22.85;15.73;;;;;;;14.85;97.58;96641.06;2049299;28;20043;-62
2022/06/28 04:33:34;;;;;;;16.58;14.48;;;;;;;14.83;98.05;96640.31;2047497;28;20054;-64
2022/06/28 04:34:37;;;;;;;19.30;15.55;;;;;;;14.85;97.08;96638.47;2048505;29;20055;-58
2022/06/28 04:35:39;;;;;;;19.13;14.90;;;;;;;14.89;96.91;96645.22;2041568;29;20091;-61
2022/06/28 04:36:40;;;;;;;20.17;15.27;;;;;;;14.92;96.12;96649.44;2033239;29;20040;-62
2022/06/28 04:37:42;;;;;;;22.80;17.02;;;;;;;14.91;96.05;96638.13;2033860;29;20044;-62
2022/06/28 04:38:54;;;;;;;18.42;15.43;;;;;;;14.99;95.77;96649.03;2043473;29;20644;-62
2022/06/28 04:39:59;;;;;;;18.33;14.02;;;;;;;14.98;95.44;96646.50;2048912;28;20067;-62
2022/06/28 04:41:05;;;;;;;22.02;14.68;;;;;;;14.96;96.00;96646.56;2048237;29;20183;-61
2022/06/28 04:42:18;;;;;;;18.08;14.95;;;;;;;15.00;96.08;96653.31;2048223;29;20043;-62
2022/06/28 04:43:19;;;;;;;18.98;14.63;;;;;;;15.01;95.66;96643.69;2049572;28;20062;-62
2022/06/28 04:44:21;;;;;;;19.10;15.18;;;;;;;14.99;95.84;96635.97;2042200;28;20426;-62
2022/06/28 04:45:27;;;;;;;19.98;15.63;;;;;;;14.99;96.54;96645.56;2041283;29;20055;-62
2022/06/28 04:46:40;;;;;;;17.15;13.93;;;;;;;14.97;95.51;96647.44;2041871;29;20044;-62
2022/06/28 04:47:44;;;;;;;15.38;11.85;;;;;;;14.96;95.49;96654.41;2041005;29;20455;-62
2022/06/28 04:48:46;;;;;;;15.75;13.80;;;;;;;15.02;95.10;96655.00;2033651;29;20052;-63
2022/06/28 04:49:48;;;;;;;13.88;12.07;;;;;;;15.08;95.42;96659.91;2040725;28;20540;-62
2022/06/28 04:50:49;;;;;;;19.02;12.52;;;;;;;15.18;94.61;96663.69;2049266;29;20413;-62
2022/06/28 04:51:52;;;;;;;16.13;12.82;;;;;;;15.19;94.01;96658.38;2048804;29;20448;-62
2022/06/28 04:53:06;;;;;;;21.05;13.18;;;;;;;15.22;94.59;96660.00;2041407;29;20074;-63
2022/06/28 04:54:08;;;;;;;14.15;12.70;;;;;;;15.35;94.83;96657.56;2043051;29;20067;-63
2022/06/28 04:55:29;;;;;;;14.30;12.27;;;;;;;15.41;93.40;96649.34;2049288;28;20051;-62
2022/06/28 04:56:38;;;;;;;14.75;12.57;;;;;;;15.51;92.95;96645.28;2047509;29;20552;-61
2022/06/28 04:57:40;;;;;;;12.40;11.10;;;;;;;15.52;92.88;96639.09;2046934;29;20051;-63
2022/06/28 04:58:48;;;;;;;15.35;11.32;;;;;;;15.51;92.52;96639.22;2040983;29;20066;-64
2022/06/28 04:59:50;;;;;;;12.00;10.07;;;;;;;15.48;91.95;96637.63;2034267;29;20050;-62
2022/06/28 05:01:01;;;;;;;12.82;10.75;;;;;;;15.59;91.35;96635.22;2047990;29;20051;-64
2022/06/28 05:02:03;;;;;;;11.90;10.32;;;;;;;15.67;91.45;96632.16;2043040;28;20501;-63
2022/06/28 05:03:04;;;;;;;13.07;11.70;;;;;;;15.63;91.64;96635.88;2041397;29;20052;-62